EWG8KG EDDK-LGIR
Flight info
| Callsign | EWG8KG |
|---|---|
| Flight time | N/A |
| Altitude | 35000 |
| Route | KUMIK1R KUMIK L603 TESGA DCT ESATI DCT DETEV DCT DINKU M867 XERUM DCT BAVAX DCT RADIZ DCT NIPEL DCT ABISO DCT NEMEK DCT VRANA DCT PETAK DCT PINDO UL607 GIVIS T514 XAVIS |
| Aircraft | A320/M-SDE3FGHIRWY/LB1 |
Departure
| Time | 2026-05-05 14:14 |
|---|---|
| Airport | Cologne Bonn Airport (EDDK) |
Arrival
| Time | N/A |
|---|---|
| Airport | Heraklion International Nikos Kazantzakis Airport (LGIR) |
| Time | Latitude | Longitude | Altitude | Speed | Heading |
|---|---|---|---|---|---|
| 2026-05-05 13:38 | 50.88057 | 7.12190 | 232 ft | 0 kts | 216° |
| 2026-05-05 14:02 | 50.88060 | 7.12193 | 232 ft | 3 kts | 215° |
| 2026-05-05 14:02 | 50.88083 | 7.12215 | 263 ft | 4 kts | 200° |
| 2026-05-05 14:02 | 50.88108 | 7.12224 | 236 ft | 4 kts | 171° |
| 2026-05-05 14:02 | 50.88126 | 7.12211 | 235 ft | 0 kts | 126° |
| 2026-05-05 14:04 | 50.88117 | 7.12232 | 234 ft | 6 kts | 124° |
| 2026-05-05 14:05 | 50.88102 | 7.12285 | 232 ft | 5 kts | 105° |
| 2026-05-05 14:05 | 50.88090 | 7.12340 | 235 ft | 10 kts | 120° |
| 2026-05-05 14:05 | 50.88033 | 7.12448 | 232 ft | 12 kts | 137° |
| 2026-05-05 14:05 | 50.87974 | 7.12534 | 232 ft | 10 kts | 137° |
| 2026-05-05 14:06 | 50.87924 | 7.12602 | 232 ft | 9 kts | 149° |
| 2026-05-05 14:06 | 50.87867 | 7.12611 | 232 ft | 11 kts | 181° |
| 2026-05-05 14:06 | 50.87788 | 7.12672 | 232 ft | 13 kts | 136° |
| 2026-05-05 14:06 | 50.87729 | 7.12757 | 232 ft | 11 kts | 137° |
| 2026-05-05 14:07 | 50.87673 | 7.12838 | 232 ft | 15 kts | 137° |
| 2026-05-05 14:07 | 50.87568 | 7.12990 | 232 ft | 22 kts | 137° |
| 2026-05-05 14:07 | 50.87456 | 7.13153 | 232 ft | 22 kts | 137° |
| 2026-05-05 14:07 | 50.87346 | 7.13311 | 232 ft | 21 kts | 137° |
| 2026-05-05 14:08 | 50.87242 | 7.13462 | 234 ft | 18 kts | 137° |
| 2026-05-05 14:08 | 50.87158 | 7.13583 | 237 ft | 14 kts | 137° |
| 2026-05-05 14:08 | 50.87065 | 7.13718 | 241 ft | 21 kts | 137° |
| 2026-05-05 14:08 | 50.86966 | 7.13861 | 246 ft | 17 kts | 137° |
| 2026-05-05 14:09 | 50.86891 | 7.13970 | 253 ft | 18 kts | 137° |
| 2026-05-05 14:09 | 50.86779 | 7.14118 | 255 ft | 21 kts | 157° |
| 2026-05-05 14:09 | 50.86670 | 7.14229 | 260 ft | 16 kts | 137° |
| 2026-05-05 14:09 | 50.86577 | 7.14365 | 262 ft | 25 kts | 137° |
| 2026-05-05 14:10 | 50.86453 | 7.14544 | 269 ft | 24 kts | 137° |
| 2026-05-05 14:10 | 50.86318 | 7.14740 | 277 ft | 27 kts | 137° |
| 2026-05-05 14:10 | 50.86185 | 7.14932 | 284 ft | 25 kts | 137° |
| 2026-05-05 14:10 | 50.86062 | 7.15110 | 289 ft | 23 kts | 137° |
| 2026-05-05 14:11 | 50.85950 | 7.15273 | 294 ft | 21 kts | 137° |
| 2026-05-05 14:11 | 50.85834 | 7.15440 | 296 ft | 23 kts | 137° |
| 2026-05-05 14:11 | 50.85722 | 7.15602 | 300 ft | 21 kts | 137° |
| 2026-05-05 14:11 | 50.85595 | 7.15786 | 304 ft | 28 kts | 137° |
| 2026-05-05 14:12 | 50.85453 | 7.15990 | 307 ft | 28 kts | 137° |
| 2026-05-05 14:12 | 50.85339 | 7.16228 | 309 ft | 28 kts | 102° |
| 2026-05-05 14:12 | 50.85390 | 7.16456 | 307 ft | 16 kts | 38° |
| 2026-05-05 14:12 | 50.85495 | 7.16521 | 307 ft | 17 kts | 5° |
| 2026-05-05 14:13 | 50.85600 | 7.16452 | 309 ft | 19 kts | 317° |
| 2026-05-05 14:13 | 50.85826 | 7.16126 | 304 ft | 77 kts | 317° |
| 2026-05-05 14:13 | 50.86370 | 7.15340 | 285 ft | 133 kts | 317° |
| 2026-05-05 14:13 | 50.87166 | 7.14183 | 373 ft | 167 kts | 317° |
| 2026-05-05 14:14 | 50.88016 | 7.12954 | 1007 ft | 166 kts | 319° |
| 2026-05-05 14:14 | 50.88880 | 7.11727 | 1657 ft | 168 kts | 322° |
| 2026-05-05 14:14 | 50.89968 | 7.10962 | 1910 ft | 184 kts | 356° |
| 2026-05-05 14:14 | 50.91268 | 7.11430 | 2094 ft | 206 kts | 30° |
| 2026-05-05 14:15 | 50.92491 | 7.12719 | 2596 ft | 213 kts | 34° |
| 2026-05-05 14:15 | 50.93587 | 7.14374 | 3023 ft | 231 kts | 58° |
| 2026-05-05 14:15 | 50.94065 | 7.16903 | 3314 ft | 254 kts | 92° |
| 2026-05-05 14:15 | 50.93813 | 7.19744 | 3885 ft | 265 kts | 101° |
| 2026-05-05 14:16 | 50.93484 | 7.22641 | 4657 ft | 269 kts | 102° |
| 2026-05-05 14:16 | 50.93144 | 7.25581 | 5422 ft | 273 kts | 102° |
| 2026-05-05 14:16 | 50.92801 | 7.28558 | 6182 ft | 276 kts | 102° |
| 2026-05-05 14:16 | 50.92459 | 7.31572 | 6927 ft | 279 kts | 102° |
| 2026-05-05 14:17 | 50.92114 | 7.34615 | 7682 ft | 282 kts | 102° |
| 2026-05-05 14:17 | 50.91568 | 7.37589 | 8427 ft | 282 kts | 119° |
| 2026-05-05 14:17 | 50.90600 | 7.40295 | 9187 ft | 284 kts | 122° |
| 2026-05-05 14:17 | 50.89596 | 7.43003 | 9915 ft | 286 kts | 122° |
| 2026-05-05 14:18 | 50.88547 | 7.45816 | 10164 ft | 308 kts | 122° |
| 2026-05-05 14:18 | 50.87418 | 7.48835 | 10358 ft | 328 kts | 122° |
| 2026-05-05 14:18 | 50.86239 | 7.51988 | 10886 ft | 336 kts | 122° |
| 2026-05-05 14:18 | 50.85046 | 7.55188 | 11565 ft | 340 kts | 122° |
| 2026-05-05 14:19 | 50.83853 | 7.58398 | 12281 ft | 344 kts | 122° |
| 2026-05-05 14:19 | 50.82633 | 7.61674 | 13115 ft | 348 kts | 122° |
| 2026-05-05 14:19 | 50.81395 | 7.64994 | 13927 ft | 353 kts | 122° |
| 2026-05-05 14:19 | 50.80139 | 7.68355 | 14652 ft | 357 kts | 122° |
| 2026-05-05 14:20 | 50.78868 | 7.71752 | 15284 ft | 360 kts | 122° |
| 2026-05-05 14:20 | 50.77589 | 7.75162 | 15860 ft | 363 kts | 122° |
| 2026-05-05 14:20 | 50.76300 | 7.78597 | 16419 ft | 365 kts | 122° |
| 2026-05-05 14:20 | 50.74996 | 7.82067 | 16970 ft | 368 kts | 122° |
| 2026-05-05 14:21 | 50.73684 | 7.85554 | 17531 ft | 371 kts | 122° |
| 2026-05-05 14:21 | 50.72357 | 7.89067 | 18083 ft | 374 kts | 122° |
| 2026-05-05 14:21 | 50.71019 | 7.92601 | 18568 ft | 376 kts | 122° |
| 2026-05-05 14:21 | 50.69672 | 7.96158 | 19052 ft | 379 kts | 122° |
| 2026-05-05 14:22 | 50.68319 | 7.99731 | 19544 ft | 381 kts | 123° |
| 2026-05-05 14:22 | 50.66952 | 8.03332 | 20043 ft | 383 kts | 123° |
| 2026-05-05 14:22 | 50.65574 | 8.06958 | 20539 ft | 386 kts | 123° |
| 2026-05-05 14:22 | 50.64192 | 8.10595 | 21028 ft | 389 kts | 123° |
| 2026-05-05 14:23 | 50.62799 | 8.14258 | 21530 ft | 391 kts | 123° |
| 2026-05-05 14:23 | 50.61398 | 8.17944 | 22036 ft | 394 kts | 123° |
| 2026-05-05 14:23 | 50.59984 | 8.21653 | 22494 ft | 396 kts | 123° |
| 2026-05-05 14:23 | 50.58561 | 8.25373 | 22947 ft | 398 kts | 123° |
| 2026-05-05 14:24 | 50.57123 | 8.29119 | 23378 ft | 401 kts | 123° |
| 2026-05-05 14:24 | 50.55679 | 8.32869 | 23749 ft | 403 kts | 123° |
| 2026-05-05 14:24 | 50.54220 | 8.36655 | 24100 ft | 405 kts | 123° |
| 2026-05-05 14:24 | 50.52759 | 8.40455 | 24445 ft | 407 kts | 123° |
| 2026-05-05 14:25 | 50.51312 | 8.44222 | 24800 ft | 409 kts | 124° |
| 2026-05-05 14:25 | 50.49837 | 8.48060 | 25143 ft | 411 kts | 124° |
| 2026-05-05 14:25 | 50.48352 | 8.51910 | 25464 ft | 413 kts | 124° |
| 2026-05-05 14:25 | 50.46859 | 8.55770 | 25781 ft | 415 kts | 124° |
| 2026-05-05 14:26 | 50.45350 | 8.59638 | 26099 ft | 416 kts | 127° |
| 2026-05-05 14:26 | 50.43578 | 8.63219 | 26423 ft | 414 kts | 136° |
| 2026-05-05 14:26 | 50.41522 | 8.66382 | 26753 ft | 415 kts | 139° |
| 2026-05-05 14:26 | 50.39437 | 8.69513 | 27076 ft | 416 kts | 139° |
| 2026-05-05 14:27 | 50.37342 | 8.72666 | 27388 ft | 418 kts | 139° |
| 2026-05-05 14:27 | 50.35241 | 8.75825 | 27694 ft | 420 kts | 139° |
| 2026-05-05 14:27 | 50.33130 | 8.78991 | 28001 ft | 421 kts | 139° |
| 2026-05-05 14:27 | 50.31015 | 8.82161 | 28298 ft | 422 kts | 139° |
| 2026-05-05 14:28 | 50.28891 | 8.85347 | 28592 ft | 424 kts | 139° |
| 2026-05-05 14:28 | 50.26759 | 8.88549 | 28885 ft | 425 kts | 139° |
| 2026-05-05 14:28 | 50.24622 | 8.91756 | 29172 ft | 427 kts | 140° |
| 2026-05-05 14:28 | 50.22479 | 8.94966 | 29447 ft | 428 kts | 140° |
| 2026-05-05 14:29 | 50.20325 | 8.98182 | 29708 ft | 429 kts | 140° |
| 2026-05-05 14:29 | 50.18167 | 9.01399 | 29946 ft | 430 kts | 140° |
| 2026-05-05 14:29 | 50.16001 | 9.04627 | 30156 ft | 431 kts | 140° |
| 2026-05-05 14:29 | 50.13833 | 9.07853 | 30380 ft | 431 kts | 140° |
| 2026-05-05 14:30 | 50.11664 | 9.11070 | 30679 ft | 429 kts | 140° |
| 2026-05-05 14:30 | 50.09503 | 9.14267 | 30971 ft | 428 kts | 140° |
| 2026-05-05 14:30 | 50.07343 | 9.17458 | 31273 ft | 427 kts | 140° |
| 2026-05-05 14:30 | 50.05195 | 9.20632 | 31563 ft | 426 kts | 140° |
| 2026-05-05 14:31 | 50.03050 | 9.23801 | 31842 ft | 425 kts | 140° |
| 2026-05-05 14:31 | 50.00940 | 9.26920 | 32190 ft | 424 kts | 140° |
| 2026-05-05 14:31 | 49.98809 | 9.30068 | 32498 ft | 423 kts | 140° |
| 2026-05-05 14:31 | 49.96677 | 9.33213 | 32753 ft | 422 kts | 140° |
| 2026-05-05 14:32 | 49.94550 | 9.36346 | 33036 ft | 421 kts | 140° |
| 2026-05-05 14:32 | 49.92423 | 9.39468 | 33352 ft | 420 kts | 141° |
| 2026-05-05 14:32 | 49.90299 | 9.42579 | 33647 ft | 419 kts | 141° |
| 2026-05-05 14:32 | 49.88180 | 9.45681 | 33905 ft | 418 kts | 141° |
| 2026-05-05 14:33 | 49.86064 | 9.48775 | 34107 ft | 418 kts | 141° |
| 2026-05-05 14:33 | 49.83950 | 9.51865 | 34320 ft | 418 kts | 141° |
| 2026-05-05 14:33 | 49.81829 | 9.54962 | 34492 ft | 419 kts | 141° |
| 2026-05-05 14:33 | 49.79705 | 9.58055 | 34653 ft | 419 kts | 141° |
| 2026-05-05 14:34 | 49.77582 | 9.61142 | 34788 ft | 419 kts | 141° |
| 2026-05-05 14:34 | 49.75463 | 9.64218 | 34821 ft | 417 kts | 141° |
| 2026-05-05 14:34 | 49.71245 | 9.70332 | 34818 ft | 415 kts | 141° |
| 2026-05-05 14:35 | 49.67035 | 9.76423 | 34829 ft | 415 kts | 141° |
| 2026-05-05 14:35 | 49.62822 | 9.82500 | 34839 ft | 415 kts | 141° |
| 2026-05-05 14:36 | 49.58602 | 9.88563 | 34846 ft | 414 kts | 141° |
| 2026-05-05 14:36 | 49.54379 | 9.94602 | 34850 ft | 414 kts | 141° |
| 2026-05-05 14:37 | 49.50184 | 10.00605 | 34850 ft | 414 kts | 141° |
| 2026-05-05 14:37 | 49.45967 | 10.06639 | 34852 ft | 414 kts | 141° |
| 2026-05-05 14:38 | 49.41743 | 10.12659 | 34850 ft | 414 kts | 141° |
| 2026-05-05 14:38 | 49.37511 | 10.18665 | 34845 ft | 415 kts | 141° |
| 2026-05-05 14:39 | 49.33273 | 10.24658 | 34794 ft | 414 kts | 141° |
| 2026-05-05 14:39 | 49.29035 | 10.30646 | 34800 ft | 415 kts | 141° |
| 2026-05-05 14:40 | 49.24785 | 10.36624 | 34803 ft | 415 kts | 142° |
| 2026-05-05 14:40 | 49.20083 | 10.41555 | 34803 ft | 409 kts | 153° |
| 2026-05-05 14:41 | 49.15184 | 10.46003 | 34804 ft | 410 kts | 153° |
| 2026-05-05 14:41 | 49.10277 | 10.50438 | 34810 ft | 410 kts | 153° |
| 2026-05-05 14:42 | 49.05365 | 10.54887 | 34812 ft | 411 kts | 152° |
| 2026-05-05 14:42 | 49.00456 | 10.59349 | 34824 ft | 411 kts | 153° |
| 2026-05-05 14:43 | 48.95537 | 10.63791 | 34820 ft | 411 kts | 153° |
| 2026-05-05 14:43 | 48.90618 | 10.68231 | 34827 ft | 411 kts | 153° |
| 2026-05-05 14:44 | 48.85732 | 10.72635 | 34823 ft | 411 kts | 153° |
| 2026-05-05 14:44 | 48.80905 | 10.77431 | 34819 ft | 415 kts | 142° |
| 2026-05-05 14:45 | 48.76930 | 10.83781 | 34803 ft | 419 kts | 136° |
| 2026-05-05 14:45 | 48.73023 | 10.90354 | 34795 ft | 420 kts | 136° |
| 2026-05-05 14:46 | 48.69105 | 10.96925 | 34788 ft | 420 kts | 136° |
| 2026-05-05 14:46 | 48.65179 | 11.03490 | 34786 ft | 421 kts | 136° |
| 2026-05-05 14:47 | 48.61231 | 11.10055 | 34796 ft | 422 kts | 136° |
| 2026-05-05 14:47 | 48.57278 | 11.16619 | 34787 ft | 422 kts | 136° |
| 2026-05-05 14:48 | 48.53320 | 11.23182 | 34784 ft | 423 kts | 136° |
| 2026-05-05 14:48 | 48.49354 | 11.29737 | 34779 ft | 423 kts | 136° |
| 2026-05-05 14:49 | 48.45373 | 11.36297 | 34781 ft | 424 kts | 136° |
| 2026-05-05 14:49 | 48.41380 | 11.42855 | 34771 ft | 425 kts | 136° |
| 2026-05-05 14:50 | 48.37384 | 11.49410 | 34768 ft | 425 kts | 136° |
| 2026-05-05 14:50 | 48.33406 | 11.55920 | 34764 ft | 426 kts | 136° |
| 2026-05-05 14:51 | 48.29363 | 11.62519 | 34760 ft | 427 kts | 136° |
| 2026-05-05 14:51 | 48.25338 | 11.68988 | 34762 ft | 426 kts | 139° |
| 2026-05-05 14:52 | 48.21039 | 11.75070 | 34762 ft | 425 kts | 142° |
| 2026-05-05 14:52 | 48.16610 | 11.80944 | 34763 ft | 425 kts | 142° |
| 2026-05-05 14:53 | 48.12203 | 11.86856 | 34763 ft | 426 kts | 141° |
| 2026-05-05 14:53 | 48.07814 | 11.92849 | 34769 ft | 427 kts | 141° |
| 2026-05-05 14:54 | 48.03429 | 11.98854 | 34768 ft | 428 kts | 141° |
| 2026-05-05 14:54 | 47.99023 | 12.04867 | 34767 ft | 429 kts | 141° |
| 2026-05-05 14:55 | 47.94608 | 12.10866 | 34764 ft | 430 kts | 141° |
| 2026-05-05 14:55 | 47.90182 | 12.16867 | 34762 ft | 430 kts | 142° |
| 2026-05-05 14:56 | 47.86498 | 12.21846 | 34758 ft | 431 kts | 142° |
| 2026-05-05 14:56 | 47.82050 | 12.27836 | 34755 ft | 431 kts | 142° |
| 2026-05-05 14:57 | 47.76874 | 12.34799 | 34754 ft | 432 kts | 142° |
| 2026-05-05 14:57 | 47.73134 | 12.39817 | 34755 ft | 433 kts | 142° |
| 2026-05-05 14:58 | 47.68655 | 12.45811 | 34757 ft | 434 kts | 142° |
| 2026-05-05 14:58 | 47.64158 | 12.51807 | 34755 ft | 435 kts | 142° |
| 2026-05-05 14:59 | 47.59659 | 12.57828 | 34764 ft | 437 kts | 141° |
| 2026-05-05 14:59 | 47.55168 | 12.63913 | 34770 ft | 438 kts | 141° |
| 2026-05-05 15:00 | 47.51428 | 12.68978 | 34769 ft | 439 kts | 141° |
| 2026-05-05 15:00 | 47.46150 | 12.76098 | 34792 ft | 440 kts | 141° |
| 2026-05-05 15:01 | 47.41637 | 12.82133 | 34796 ft | 441 kts | 141° |
| 2026-05-05 15:01 | 47.37091 | 12.88204 | 34810 ft | 441 kts | 141° |
| 2026-05-05 15:02 | 47.32539 | 12.94278 | 34825 ft | 441 kts | 141° |
| 2026-05-05 15:02 | 47.27977 | 13.00339 | 34839 ft | 442 kts | 141° |
| 2026-05-05 15:03 | 47.23411 | 13.06400 | 34857 ft | 442 kts | 142° |
| 2026-05-05 15:03 | 47.18838 | 13.12451 | 34873 ft | 443 kts | 142° |
| 2026-05-05 15:04 | 47.14259 | 13.18507 | 34881 ft | 443 kts | 142° |
| 2026-05-05 15:04 | 47.09675 | 13.24561 | 34884 ft | 443 kts | 142° |
| 2026-05-05 15:05 | 47.02787 | 13.33616 | 34916 ft | 444 kts | 142° |
| 2026-05-05 15:06 | 46.98190 | 13.39649 | 34929 ft | 443 kts | 142° |
| 2026-05-05 15:06 | 46.93596 | 13.45654 | 34932 ft | 443 kts | 142° |
| 2026-05-05 15:07 | 46.88986 | 13.51653 | 34943 ft | 443 kts | 142° |
| 2026-05-05 15:07 | 46.84407 | 13.57601 | 34946 ft | 444 kts | 142° |
| 2026-05-05 15:08 | 46.79796 | 13.63594 | 34946 ft | 444 kts | 142° |
| 2026-05-05 15:08 | 46.75176 | 13.69582 | 34945 ft | 445 kts | 142° |
| 2026-05-05 15:09 | 46.70542 | 13.75554 | 34948 ft | 445 kts | 142° |
| 2026-05-05 15:09 | 46.65905 | 13.81530 | 34948 ft | 445 kts | 142° |
| 2026-05-05 15:10 | 46.61259 | 13.87498 | 34949 ft | 446 kts | 142° |
| 2026-05-05 15:10 | 46.56604 | 13.93464 | 34952 ft | 446 kts | 142° |
| 2026-05-05 15:11 | 46.51936 | 13.99422 | 34956 ft | 447 kts | 142° |